sensor_id;sensor_type;location;lat;lon;timestamp;temperature;humidity
10270;DHT22;5180;50.832;5.390;2022-11-21T00:00:17;7.60;99.90
10270;DHT22;5180;50.832;5.390;2022-11-21T00:02:43;7.60;99.90
10270;DHT22;5180;50.832;5.390;2022-11-21T00:05:08;7.60;99.90
10270;DHT22;5180;50.832;5.390;2022-11-21T00:07:34;7.60;99.90
10270;DHT22;5180;50.832;5.390;2022-11-21T00:10:00;7.50;99.90
10270;DHT22;5180;50.832;5.390;2022-11-21T00:12:26;7.40;99.90
10270;DHT22;5180;50.832;5.390;2022-11-21T00:14:52;7.30;99.90
10270;DHT22;5180;50.832;5.390;2022-11-21T00:17:17;7.30;99.90
10270;DHT22;5180;50.832;5.390;2022-11-21T00:19:43;7.10;99.90
10270;DHT22;5180;50.832;5.390;2022-11-21T00:22:09;7.00;99.90
10270;DHT22;5180;50.832;5.390;2022-11-21T00:24:34;6.90;99.90
10270;DHT22;5180;50.832;5.390;2022-11-21T00:27:00;6.90;99.90
10270;DHT22;5180;50.832;5.390;2022-11-21T00:29:25;6.80;99.90
10270;DHT22;5180;50.832;5.390;2022-11-21T00:31:51;6.70;99.90
10270;DHT22;5180;50.832;5.390;2022-11-21T00:34:17;6.60;99.90
10270;DHT22;5180;50.832;5.390;2022-11-21T00:36:42;6.60;99.90
10270;DHT22;5180;50.832;5.390;2022-11-21T00:39:08;6.50;99.90
10270;DHT22;5180;50.832;5.390;2022-11-21T00:41:33;6.40;99.90
10270;DHT22;5180;50.832;5.390;2022-11-21T00:43:59;6.40;99.90
10270;DHT22;5180;50.832;5.390;2022-11-21T00:46:25;6.40;99.90
10270;DHT22;5180;50.832;5.390;2022-11-21T00:48:50;6.40;99.90
10270;DHT22;5180;50.832;5.390;2022-11-21T00:51:16;6.40;99.90
10270;DHT22;5180;50.832;5.390;2022-11-21T00:53:42;6.40;99.90
10270;DHT22;5180;50.832;5.390;2022-11-21T00:56:07;6.40;99.90
10270;DHT22;5180;50.832;5.390;2022-11-21T00:58:33;6.40;99.90
10270;DHT22;5180;50.832;5.390;2022-11-21T01:01:09;6.50;99.90
10270;DHT22;5180;50.832;5.390;2022-11-21T01:03:34;6.50;99.90
10270;DHT22;5180;50.832;5.390;2022-11-21T01:06:06;6.50;99.90
10270;DHT22;5180;50.832;5.390;2022-11-21T01:08:34;6.50;99.90
10270;DHT22;5180;50.832;5.390;2022-11-21T01:11:06;6.50;99.90
10270;DHT22;5180;50.832;5.390;2022-11-21T01:13:33;6.60;99.90
10270;DHT22;5180;50.832;5.390;2022-11-21T01:16:06;6.60;99.90
10270;DHT22;5180;50.832;5.390;2022-11-21T01:18:33;6.70;99.90
10270;DHT22;5180;50.832;5.390;2022-11-21T01:21:03;6.70;99.90
10270;DHT22;5180;50.832;5.390;2022-11-21T01:23:29;6.80;99.90
10270;DHT22;5180;50.832;5.390;2022-11-21T01:26:08;6.90;99.90
10270;DHT22;5180;50.832;5.390;2022-11-21T01:28:34;6.90;99.90
10270;DHT22;5180;50.832;5.390;2022-11-21T01:31:08;7.00;99.90
10270;DHT22;5180;50.832;5.390;2022-11-21T01:33:34;7.00;99.90
10270;DHT22;5180;50.832;5.390;2022-11-21T01:36:20;7.10;99.90
10270;DHT22;5180;50.832;5.390;2022-11-21T01:38:48;7.10;99.90
10270;DHT22;5180;50.832;5.390;2022-11-21T01:41:18;7.20;99.90
10270;DHT22;5180;50.832;5.390;2022-11-21T01:43:44;7.10;99.90
10270;DHT22;5180;50.832;5.390;2022-11-21T01:46:18;7.00;99.90
10270;DHT22;5180;50.832;5.390;2022-11-21T01:49:06;6.90;99.90
10270;DHT22;5180;50.832;5.390;2022-11-21T01:54:26;6.70;99.90
10270;DHT22;5180;50.832;5.390;2022-11-21T01:57:05;6.60;99.90
10270;DHT22;5180;50.832;5.390;2022-11-21T01:59:39;6.60;99.90
10270;DHT22;5180;50.832;5.390;2022-11-21T02:02:07;6.60;99.90
10270;DHT22;5180;50.832;5.390;2022-11-21T02:04:37;6.60;99.90
10270;DHT22;5180;50.832;5.390;2022-11-21T02:07:05;6.60;99.90
10270;DHT22;5180;50.832;5.390;2022-11-21T02:09:33;6.70;99.90
10270;DHT22;5180;50.832;5.390;2022-11-21T02:12:04;6.70;99.90
10270;DHT22;5180;50.832;5.390;2022-11-21T02:14:32;6.80;99.90
10270;DHT22;5180;50.832;5.390;2022-11-21T02:17:02;6.80;99.90
10270;DHT22;5180;50.832;5.390;2022-11-21T02:25:05;7.00;99.90
10270;DHT22;5180;50.832;5.390;2022-11-21T02:27:32;7.00;99.90
10270;DHT22;5180;50.832;5.390;2022-11-21T02:29:58;7.10;99.90
10270;DHT22;5180;50.832;5.390;2022-11-21T02:32:31;7.10;99.90
10270;DHT22;5180;50.832;5.390;2022-11-21T02:34:57;7.10;99.90
10270;DHT22;5180;50.832;5.390;2022-11-21T02:37:23;7.10;99.90
10270;DHT22;5180;50.832;5.390;2022-11-21T02:39:49;7.10;99.90
10270;DHT22;5180;50.832;5.390;2022-11-21T02:42:24;7.10;99.90
10270;DHT22;5180;50.832;5.390;2022-11-21T02:45:13;7.10;99.90
10270;DHT22;5180;50.832;5.390;2022-11-21T02:47:41;7.00;99.90
10270;DHT22;5180;50.832;5.390;2022-11-21T02:52:39;7.00;99.90
10270;DHT22;5180;50.832;5.390;2022-11-21T02:55:05;7.00;99.90
10270;DHT22;5180;50.832;5.390;2022-11-21T02:57:31;7.00;99.90
10270;DHT22;5180;50.832;5.390;2022-11-21T02:59:57;7.10;99.90
10270;DHT22;5180;50.832;5.390;2022-11-21T03:02:22;7.10;99.90
10270;DHT22;5180;50.832;5.390;2022-11-21T03:04:48;7.10;99.90
10270;DHT22;5180;50.832;5.390;2022-11-21T03:07:13;7.20;99.90
10270;DHT22;5180;50.832;5.390;2022-11-21T03:09:39;7.20;99.90
10270;DHT22;5180;50.832;5.390;2022-11-21T03:12:07;7.20;99.90
10270;DHT22;5180;50.832;5.390;2022-11-21T03:14:33;7.30;99.90
10270;DHT22;5180;50.832;5.390;2022-11-21T03:16:59;7.30;99.90
10270;DHT22;5180;50.832;5.390;2022-11-21T03:19:25;7.20;99.90
10270;DHT22;5180;50.832;5.390;2022-11-21T03:21:50;7.20;99.90
10270;DHT22;5180;50.832;5.390;2022-11-21T03:24:16;7.20;99.90
10270;DHT22;5180;50.832;5.390;2022-11-21T03:26:41;7.20;99.90
10270;DHT22;5180;50.832;5.390;2022-11-21T03:29:07;7.20;99.90
10270;DHT22;5180;50.832;5.390;2022-11-21T03:31:33;7.20;99.90
10270;DHT22;5180;50.832;5.390;2022-11-21T03:33:59;7.20;99.90
10270;DHT22;5180;50.832;5.390;2022-11-21T03:36:24;7.20;99.90
10270;DHT22;5180;50.832;5.390;2022-11-21T03:38:50;7.20;99.90
10270;DHT22;5180;50.832;5.390;2022-11-21T03:41:16;7.20;99.90
10270;DHT22;5180;50.832;5.390;2022-11-21T03:44:10;7.20;99.90
10270;DHT22;5180;50.832;5.390;2022-11-21T03:46:38;7.20;99.90
10270;DHT22;5180;50.832;5.390;2022-11-21T03:49:04;7.20;99.90
10270;DHT22;5180;50.832;5.390;2022-11-21T03:51:30;7.20;99.90
10270;DHT22;5180;50.832;5.390;2022-11-21T03:53:56;7.20;99.90
10270;DHT22;5180;50.832;5.390;2022-11-21T03:56:22;7.20;99.90
10270;DHT22;5180;50.832;5.390;2022-11-21T03:58:48;7.20;99.90
10270;DHT22;5180;50.832;5.390;2022-11-21T04:01:14;7.20;99.90
10270;DHT22;5180;50.832;5.390;2022-11-21T04:03:41;7.30;99.90
10270;DHT22;5180;50.832;5.390;2022-11-21T04:06:08;7.30;99.90
10270;DHT22;5180;50.832;5.390;2022-11-21T04:08:34;7.30;99.90
10270;DHT22;5180;50.832;5.390;2022-11-21T04:10:59;7.30;99.90
10270;DHT22;5180;50.832;5.390;2022-11-21T04:13:25;7.30;99.90
10270;DHT22;5180;50.832;5.390;2022-11-21T04:15:51;7.30;99.90
10270;DHT22;5180;50.832;5.390;2022-11-21T04:18:16;7.30;99.90
10270;DHT22;5180;50.832;5.390;2022-11-21T04:20:42;7.40;99.90
10270;DHT22;5180;50.832;5.390;2022-11-21T04:23:08;7.40;99.90
10270;DHT22;5180;50.832;5.390;2022-11-21T04:25:33;7.40;99.90
10270;DHT22;5180;50.832;5.390;2022-11-21T04:28:00;7.40;99.90
10270;DHT22;5180;50.832;5.390;2022-11-21T04:30:27;7.40;99.90
10270;DHT22;5180;50.832;5.390;2022-11-21T04:32:53;7.40;99.90
10270;DHT22;5180;50.832;5.390;2022-11-21T04:35:19;7.40;99.90
10270;DHT22;5180;50.832;5.390;2022-11-21T04:37:45;7.40;99.90
10270;DHT22;5180;50.832;5.390;2022-11-21T04:40:11;7.30;99.90
10270;DHT22;5180;50.832;5.390;2022-11-21T04:42:41;7.30;99.90
10270;DHT22;5180;50.832;5.390;2022-11-21T04:45:08;7.30;99.90
10270;DHT22;5180;50.832;5.390;2022-11-21T04:47:44;7.30;99.90
10270;DHT22;5180;50.832;5.390;2022-11-21T04:50:12;7.20;99.90
10270;DHT22;5180;50.832;5.390;2022-11-21T04:52:38;7.30;99.90
10270;DHT22;5180;50.832;5.390;2022-11-21T04:55:04;7.20;99.90
10270;DHT22;5180;50.832;5.390;2022-11-21T04:57:31;7.20;99.90
10270;DHT22;5180;50.832;5.390;2022-11-21T04:59:57;7.10;99.90
10270;DHT22;5180;50.832;5.390;2022-11-21T05:02:23;7.10;99.90
10270;DHT22;5180;50.832;5.390;2022-11-21T05:04:49;7.10;99.90
10270;DHT22;5180;50.832;5.390;2022-11-21T05:07:15;7.10;99.90
10270;DHT22;5180;50.832;5.390;2022-11-21T05:09:41;7.10;99.90
10270;DHT22;5180;50.832;5.390;2022-11-21T05:12:08;7.10;99.90
10270;DHT22;5180;50.832;5.390;2022-11-21T05:14:52;7.10;99.90
10270;DHT22;5180;50.832;5.390;2022-11-21T05:17:18;7.00;99.90
10270;DHT22;5180;50.832;5.390;2022-11-21T05:19:43;7.00;99.90
10270;DHT22;5180;50.832;5.390;2022-11-21T05:22:09;7.00;99.90
10270;DHT22;5180;50.832;5.390;2022-11-21T05:24:35;6.90;99.90
10270;DHT22;5180;50.832;5.390;2022-11-21T05:27:00;6.90;99.90
10270;DHT22;5180;50.832;5.390;2022-11-21T05:29:26;6.90;99.90
10270;DHT22;5180;50.832;5.390;2022-11-21T05:31:51;6.90;99.90
10270;DHT22;5180;50.832;5.390;2022-11-21T05:34:17;6.90;99.90
10270;DHT22;5180;50.832;5.390;2022-11-21T05:36:43;6.80;99.90
10270;DHT22;5180;50.832;5.390;2022-11-21T05:39:08;6.80;99.90
10270;DHT22;5180;50.832;5.390;2022-11-21T05:41:34;6.70;99.90
10270;DHT22;5180;50.832;5.390;2022-11-21T05:43:59;6.70;99.90
10270;DHT22;5180;50.832;5.390;2022-11-21T05:46:25;6.70;99.90
10270;DHT22;5180;50.832;5.390;2022-11-21T05:48:52;6.70;99.90
10270;DHT22;5180;50.832;5.390;2022-11-21T05:51:19;6.60;99.90
10270;DHT22;5180;50.832;5.390;2022-11-21T05:53:45;6.60;99.90
10270;DHT22;5180;50.832;5.390;2022-11-21T05:56:13;6.60;99.90
10270;DHT22;5180;50.832;5.390;2022-11-21T05:58:39;6.60;99.90
10270;DHT22;5180;50.832;5.390;2022-11-21T06:01:06;6.60;99.90
10270;DHT22;5180;50.832;5.390;2022-11-21T06:03:34;6.60;99.90
10270;DHT22;5180;50.832;5.390;2022-11-21T06:08:35;6.70;99.90
10270;DHT22;5180;50.832;5.390;2022-11-21T06:11:01;6.80;99.90
10270;DHT22;5180;50.832;5.390;2022-11-21T06:13:27;6.80;99.90
10270;DHT22;5180;50.832;5.390;2022-11-21T06:15:58;6.90;99.90
10270;DHT22;5180;50.832;5.390;2022-11-21T06:18:24;6.90;99.90
10270;DHT22;5180;50.832;5.390;2022-11-21T06:20:50;6.90;99.90
10270;DHT22;5180;50.832;5.390;2022-11-21T06:23:16;6.90;99.90
10270;DHT22;5180;50.832;5.390;2022-11-21T06:25:42;6.90;99.90
10270;DHT22;5180;50.832;5.390;2022-11-21T06:28:09;6.90;99.90
10270;DHT22;5180;50.832;5.390;2022-11-21T06:30:35;6.90;99.90
10270;DHT22;5180;50.832;5.390;2022-11-21T06:33:05;6.80;99.90
10270;DHT22;5180;50.832;5.390;2022-11-21T06:35:31;6.70;99.90
10270;DHT22;5180;50.832;5.390;2022-11-21T06:37:57;6.70;99.90
10270;DHT22;5180;50.832;5.390;2022-11-21T06:40:23;6.70;99.90
10270;DHT22;5180;50.832;5.390;2022-11-21T06:42:49;6.60;99.90
10270;DHT22;5180;50.832;5.390;2022-11-21T06:45:15;6.50;99.90
10270;DHT22;5180;50.832;5.390;2022-11-21T06:47:40;6.50;99.90
10270;DHT22;5180;50.832;5.390;2022-11-21T06:50:06;6.50;99.90
10270;DHT22;5180;50.832;5.390;2022-11-21T06:52:33;6.50;99.90
10270;DHT22;5180;50.832;5.390;2022-11-21T06:54:58;6.60;99.90
10270;DHT22;5180;50.832;5.390;2022-11-21T06:57:24;6.70;99.90
10270;DHT22;5180;50.832;5.390;2022-11-21T06:59:50;6.80;99.90
10270;DHT22;5180;50.832;5.390;2022-11-21T07:02:15;6.80;99.90
10270;DHT22;5180;50.832;5.390;2022-11-21T07:04:41;6.90;99.90
10270;DHT22;5180;50.832;5.390;2022-11-21T07:07:07;6.90;99.90
10270;DHT22;5180;50.832;5.390;2022-11-21T07:09:32;6.90;99.90
10270;DHT22;5180;50.832;5.390;2022-11-21T07:12:01;6.90;99.90
10270;DHT22;5180;50.832;5.390;2022-11-21T07:14:46;7.00;99.90
10270;DHT22;5180;50.832;5.390;2022-11-21T07:17:12;7.00;99.90
10270;DHT22;5180;50.832;5.390;2022-11-21T07:19:38;6.90;99.90
10270;DHT22;5180;50.832;5.390;2022-11-21T07:22:05;6.90;99.90
10270;DHT22;5180;50.832;5.390;2022-11-21T07:24:30;6.90;99.90
10270;DHT22;5180;50.832;5.390;2022-11-21T07:26:56;6.80;99.90
10270;DHT22;5180;50.832;5.390;2022-11-21T07:29:22;6.80;99.90
10270;DHT22;5180;50.832;5.390;2022-11-21T07:31:47;6.70;99.90
10270;DHT22;5180;50.832;5.390;2022-11-21T07:34:13;6.70;99.90
10270;DHT22;5180;50.832;5.390;2022-11-21T07:36:38;6.60;99.90
10270;DHT22;5180;50.832;5.390;2022-11-21T07:39:04;6.60;99.90
10270;DHT22;5180;50.832;5.390;2022-11-21T07:41:31;6.50;99.90
10270;DHT22;5180;50.832;5.390;2022-11-21T07:43:57;6.60;99.90
10270;DHT22;5180;50.832;5.390;2022-11-21T07:46:22;6.70;99.90
10270;DHT22;5180;50.832;5.390;2022-11-21T07:48:48;6.90;99.90
10270;DHT22;5180;50.832;5.390;2022-11-21T07:51:13;7.10;99.90
10270;DHT22;5180;50.832;5.390;2022-11-21T07:53:39;7.30;99.90
10270;DHT22;5180;50.832;5.390;2022-11-21T07:56:05;7.50;99.90
10270;DHT22;5180;50.832;5.390;2022-11-21T07:58:33;7.70;99.90
10270;DHT22;5180;50.832;5.390;2022-11-21T08:01:06;7.90;99.90
10270;DHT22;5180;50.832;5.390;2022-11-21T08:03:33;8.10;99.90
10270;DHT22;5180;50.832;5.390;2022-11-21T08:06:03;8.30;99.90
10270;DHT22;5180;50.832;5.390;2022-11-21T08:08:29;8.40;99.90
10270;DHT22;5180;50.832;5.390;2022-11-21T08:10:55;8.60;99.90
10270;DHT22;5180;50.832;5.390;2022-11-21T08:13:21;8.80;99.90
10270;DHT22;5180;50.832;5.390;2022-11-21T08:15:46;9.00;99.90
10270;DHT22;5180;50.832;5.390;2022-11-21T08:18:14;9.10;99.90
10270;DHT22;5180;50.832;5.390;2022-11-21T08:20:40;9.20;99.90
10270;DHT22;5180;50.832;5.390;2022-11-21T08:23:08;9.30;99.90
10270;DHT22;5180;50.832;5.390;2022-11-21T08:25:36;9.50;99.90
10270;DHT22;5180;50.832;5.390;2022-11-21T08:28:02;9.60;99.90
10270;DHT22;5180;50.832;5.390;2022-11-21T08:30:29;9.80;99.90
10270;DHT22;5180;50.832;5.390;2022-11-21T08:32:56;9.90;99.90
10270;DHT22;5180;50.832;5.390;2022-11-21T08:35:23;10.00;99.90
10270;DHT22;5180;50.832;5.390;2022-11-21T08:37:48;10.10;99.90
10270;DHT22;5180;50.832;5.390;2022-11-21T08:40:14;10.30;99.90
10270;DHT22;5180;50.832;5.390;2022-11-21T08:42:40;10.40;99.90
10270;DHT22;5180;50.832;5.390;2022-11-21T08:45:06;10.50;99.90
10270;DHT22;5180;50.832;5.390;2022-11-21T08:47:32;10.60;99.90
10270;DHT22;5180;50.832;5.390;2022-11-21T08:49:58;10.70;99.90
10270;DHT22;5180;50.832;5.390;2022-11-21T08:52:23;10.70;99.90
10270;DHT22;5180;50.832;5.390;2022-11-21T08:54:49;10.60;99.90
10270;DHT22;5180;50.832;5.390;2022-11-21T08:57:15;10.60;99.90
10270;DHT22;5180;50.832;5.390;2022-11-21T08:59:40;10.50;99.90
10270;DHT22;5180;50.832;5.390;2022-11-21T09:02:08;10.40;99.90
10270;DHT22;5180;50.832;5.390;2022-11-21T09:04:34;10.30;99.90
10270;DHT22;5180;50.832;5.390;2022-11-21T09:07:00;10.10;99.90
10270;DHT22;5180;50.832;5.390;2022-11-21T09:09:26;10.10;99.90
10270;DHT22;5180;50.832;5.390;2022-11-21T09:11:52;10.00;99.90
10270;DHT22;5180;50.832;5.390;2022-11-21T09:14:18;10.10;99.90
10270;DHT22;5180;50.832;5.390;2022-11-21T09:17:02;10.30;99.90
10270;DHT22;5180;50.832;5.390;2022-11-21T09:19:46;10.50;99.90
10270;DHT22;5180;50.832;5.390;2022-11-21T09:22:12;10.70;99.90
10270;DHT22;5180;50.832;5.390;2022-11-21T09:24:37;10.80;99.90
10270;DHT22;5180;50.832;5.390;2022-11-21T09:27:03;10.90;99.90
10270;DHT22;5180;50.832;5.390;2022-11-21T09:29:29;11.10;99.90
10270;DHT22;5180;50.832;5.390;2022-11-21T09:31:54;11.20;99.90
10270;DHT22;5180;50.832;5.390;2022-11-21T09:34:20;11.40;99.90
10270;DHT22;5180;50.832;5.390;2022-11-21T09:36:46;11.50;99.90
10270;DHT22;5180;50.832;5.390;2022-11-21T09:39:11;11.50;99.90
10270;DHT22;5180;50.832;5.390;2022-11-21T09:41:53;11.40;99.90
10270;DHT22;5180;50.832;5.390;2022-11-21T09:47:31;11.10;99.90
10270;DHT22;5180;50.832;5.390;2022-11-21T09:50:03;10.80;99.90
10270;DHT22;5180;50.832;5.390;2022-11-21T09:55:43;10.30;99.90
10270;DHT22;5180;50.832;5.390;2022-11-21T09:58:28;10.10;99.90
10270;DHT22;5180;50.832;5.390;2022-11-21T10:00:55;10.00;99.90
10270;DHT22;5180;50.832;5.390;2022-11-21T10:03:24;10.10;99.90
10270;DHT22;5180;50.832;5.390;2022-11-21T10:05:59;10.10;99.90
10270;DHT22;5180;50.832;5.390;2022-11-21T10:08:48;10.10;99.90
10270;DHT22;5180;50.832;5.390;2022-11-21T10:16:46;10.00;99.90
10270;DHT22;5180;50.832;5.390;2022-11-21T10:19:36;10.10;99.90
10270;DHT22;5180;50.832;5.390;2022-11-21T10:22:14;10.10;99.90
10270;DHT22;5180;50.832;5.390;2022-11-21T10:24:55;10.00;99.90
10270;DHT22;5180;50.832;5.390;2022-11-21T10:27:36;10.10;99.90
10270;DHT22;5180;50.832;5.390;2022-11-21T10:30:04;10.30;99.90
10270;DHT22;5180;50.832;5.390;2022-11-21T10:32:36;10.40;99.90
10270;DHT22;5180;50.832;5.390;2022-11-21T10:35:36;10.50;99.90
10270;DHT22;5180;50.832;5.390;2022-11-21T10:38:19;10.70;99.90
10270;DHT22;5180;50.832;5.390;2022-11-21T10:40:59;10.60;99.90
10270;DHT22;5180;50.832;5.390;2022-11-21T10:43:39;10.60;99.90
10270;DHT22;5180;50.832;5.390;2022-11-21T10:46:25;10.40;99.90
10270;DHT22;5180;50.832;5.390;2022-11-21T10:49:02;10.30;99.90
10270;DHT22;5180;50.832;5.390;2022-11-21T10:54:11;10.20;99.90
10270;DHT22;5180;50.832;5.390;2022-11-21T10:57:19;10.20;99.90
10270;DHT22;5180;50.832;5.390;2022-11-21T11:00:23;10.40;99.90
10270;DHT22;5180;50.832;5.390;2022-11-21T11:03:04;10.70;99.90
10270;DHT22;5180;50.832;5.390;2022-11-21T11:05:36;10.80;99.90
10270;DHT22;5180;50.832;5.390;2022-11-21T11:08:08;10.90;99.90
10270;DHT22;5180;50.832;5.390;2022-11-21T11:10:41;11.00;99.90
10270;DHT22;5180;50.832;5.390;2022-11-21T11:13:15;11.00;99.90
10270;DHT22;5180;50.832;5.390;2022-11-21T11:18:40;11.10;99.90
10270;DHT22;5180;50.832;5.390;2022-11-21T11:21:19;11.20;99.90
10270;DHT22;5180;50.832;5.390;2022-11-21T11:23:49;11.30;99.90
10270;DHT22;5180;50.832;5.390;2022-11-21T11:28:48;11.30;99.90
10270;DHT22;5180;50.832;5.390;2022-11-21T11:31:13;11.30;99.90
10270;DHT22;5180;50.832;5.390;2022-11-21T11:36:35;11.10;99.90
10270;DHT22;5180;50.832;5.390;2022-11-21T11:39:16;10.90;99.90
10270;DHT22;5180;50.832;5.390;2022-11-21T11:42:08;10.80;99.90
10270;DHT22;5180;50.832;5.390;2022-11-21T11:45:15;10.80;99.90
10270;DHT22;5180;50.832;5.390;2022-11-21T11:48:07;10.70;99.90
10270;DHT22;5180;50.832;5.390;2022-11-21T11:50:52;10.50;99.90
10270;DHT22;5180;50.832;5.390;2022-11-21T11:53:37;10.50;99.90
10270;DHT22;5180;50.832;5.390;2022-11-21T11:56:21;10.40;99.90
10270;DHT22;5180;50.832;5.390;2022-11-21T11:59:01;10.30;99.90
10270;DHT22;5180;50.832;5.390;2022-11-21T12:01:48;10.30;99.90
10270;DHT22;5180;50.832;5.390;2022-11-21T12:04:18;10.30;99.90
10270;DHT22;5180;50.832;5.390;2022-11-21T12:07:02;10.20;99.90
10270;DHT22;5180;50.832;5.390;2022-11-21T12:12:29;10.10;99.90
10270;DHT22;5180;50.832;5.390;2022-11-21T12:15:19;10.20;99.90
10270;DHT22;5180;50.832;5.390;2022-11-21T12:42:39;10.70;99.90
10270;DHT22;5180;50.832;5.390;2022-11-21T12:51:30;11.00;99.90
10270;DHT22;5180;50.832;5.390;2022-11-21T12:54:49;11.10;99.90
10270;DHT22;5180;50.832;5.390;2022-11-21T12:57:18;11.10;99.90
10270;DHT22;5180;50.832;5.390;2022-11-21T13:05:10;11.20;99.90
10270;DHT22;5180;50.832;5.390;2022-11-21T13:07:37;11.30;99.90
10270;DHT22;5180;50.832;5.390;2022-11-21T13:10:03;11.40;99.90
10270;DHT22;5180;50.832;5.390;2022-11-21T13:15:25;11.50;99.90
10270;DHT22;5180;50.832;5.390;2022-11-21T13:18:00;11.50;99.90
10270;DHT22;5180;50.832;5.390;2022-11-21T13:20:36;11.40;99.90
10270;DHT22;5180;50.832;5.390;2022-11-21T13:23:03;11.30;99.90
10270;DHT22;5180;50.832;5.390;2022-11-21T13:30:51;11.10;99.90
10270;DHT22;5180;50.832;5.390;2022-11-21T13:36:05;10.90;99.90
10270;DHT22;5180;50.832;5.390;2022-11-21T13:38:34;10.90;99.90
10270;DHT22;5180;50.832;5.390;2022-11-21T13:53:10;10.80;99.90
10270;DHT22;5180;50.832;5.390;2022-11-21T13:55:58;10.80;99.90
10270;DHT22;5180;50.832;5.390;2022-11-21T14:06:46;10.70;99.90
10270;DHT22;5180;50.832;5.390;2022-11-21T14:09:13;10.70;99.90
10270;DHT22;5180;50.832;5.390;2022-11-21T14:11:59;10.60;99.90
10270;DHT22;5180;50.832;5.390;2022-11-21T14:19:41;10.40;99.90
10270;DHT22;5180;50.832;5.390;2022-11-21T14:22:26;10.40;99.90
10270;DHT22;5180;50.832;5.390;2022-11-21T14:24:52;10.30;99.90
10270;DHT22;5180;50.832;5.390;2022-11-21T14:27:30;10.30;99.90
10270;DHT22;5180;50.832;5.390;2022-11-21T14:29:57;10.20;99.90
10270;DHT22;5180;50.832;5.390;2022-11-21T14:32:30;10.20;99.90
10270;DHT22;5180;50.832;5.390;2022-11-21T14:35:10;10.20;99.90
10270;DHT22;5180;50.832;5.390;2022-11-21T14:37:43;10.10;99.90
10270;DHT22;5180;50.832;5.390;2022-11-21T14:40:24;10.10;99.90
10270;DHT22;5180;50.832;5.390;2022-11-21T14:42:49;10.10;99.90
10270;DHT22;5180;50.832;5.390;2022-11-21T14:45:21;10.00;99.90
10270;DHT22;5180;50.832;5.390;2022-11-21T14:47:52;10.00;99.90
10270;DHT22;5180;50.832;5.390;2022-11-21T14:50:29;10.00;99.90
10270;DHT22;5180;50.832;5.390;2022-11-21T14:52:58;10.00;99.90
10270;DHT22;5180;50.832;5.390;2022-11-21T14:55:31;9.90;99.90
10270;DHT22;5180;50.832;5.390;2022-11-21T14:57:59;9.90;99.90
10270;DHT22;5180;50.832;5.390;2022-11-21T15:00:27;9.90;99.90
10270;DHT22;5180;50.832;5.390;2022-11-21T15:02:54;9.90;99.90
10270;DHT22;5180;50.832;5.390;2022-11-21T15:05:22;9.80;99.90
10270;DHT22;5180;50.832;5.390;2022-11-21T15:07:52;9.80;99.90
10270;DHT22;5180;50.832;5.390;2022-11-21T15:10:20;9.80;99.90
10270;DHT22;5180;50.832;5.390;2022-11-21T15:17:54;9.80;99.90
10270;DHT22;5180;50.832;5.390;2022-11-21T15:20:20;9.70;99.90
10270;DHT22;5180;50.832;5.390;2022-11-21T15:22:47;9.70;99.90
10270;DHT22;5180;50.832;5.390;2022-11-21T15:25:14;9.60;99.90
10270;DHT22;5180;50.832;5.390;2022-11-21T15:27:45;9.60;99.90
10270;DHT22;5180;50.832;5.390;2022-11-21T15:33:03;9.60;99.90
10270;DHT22;5180;50.832;5.390;2022-11-21T15:43:45;9.50;99.90
10270;DHT22;5180;50.832;5.390;2022-11-21T15:46:22;9.50;99.90
10270;DHT22;5180;50.832;5.390;2022-11-21T15:48:52;9.50;99.90
10270;DHT22;5180;50.832;5.390;2022-11-21T15:51:23;9.50;99.90
10270;DHT22;5180;50.832;5.390;2022-11-21T15:53:49;9.50;99.90
10270;DHT22;5180;50.832;5.390;2022-11-21T15:56:18;9.40;99.90
10270;DHT22;5180;50.832;5.390;2022-11-21T15:58:45;9.40;99.90
10270;DHT22;5180;50.832;5.390;2022-11-21T16:01:18;9.40;99.90
10270;DHT22;5180;50.832;5.390;2022-11-21T16:03:47;9.40;99.90
10270;DHT22;5180;50.832;5.390;2022-11-21T16:06:13;9.40;99.90
10270;DHT22;5180;50.832;5.390;2022-11-21T16:08:39;9.30;99.90
10270;DHT22;5180;50.832;5.390;2022-11-21T16:11:05;9.30;99.90
10270;DHT22;5180;50.832;5.390;2022-11-21T16:13:31;9.30;99.90
10270;DHT22;5180;50.832;5.390;2022-11-21T16:15:59;9.40;99.90
10270;DHT22;5180;50.832;5.390;2022-11-21T16:18:25;9.30;99.90
10270;DHT22;5180;50.832;5.390;2022-11-21T16:20:50;9.30;99.90
10270;DHT22;5180;50.832;5.390;2022-11-21T16:23:16;9.40;99.90
10270;DHT22;5180;50.832;5.390;2022-11-21T16:26:09;9.40;99.90
10270;DHT22;5180;50.832;5.390;2022-11-21T16:28:35;9.40;99.90
10270;DHT22;5180;50.832;5.390;2022-11-21T16:31:01;9.40;99.90
10270;DHT22;5180;50.832;5.390;2022-11-21T16:33:27;9.40;99.90
10270;DHT22;5180;50.832;5.390;2022-11-21T16:35:53;9.40;99.90
10270;DHT22;5180;50.832;5.390;2022-11-21T16:38:26;9.40;99.90
10270;DHT22;5180;50.832;5.390;2022-11-21T16:40:56;9.30;99.90
10270;DHT22;5180;50.832;5.390;2022-11-21T16:43:22;9.30;99.90
10270;DHT22;5180;50.832;5.390;2022-11-21T16:45:48;9.30;99.90
10270;DHT22;5180;50.832;5.390;2022-11-21T16:48:14;9.30;99.90
10270;DHT22;5180;50.832;5.390;2022-11-21T16:50:39;9.30;99.90
10270;DHT22;5180;50.832;5.390;2022-11-21T16:53:05;9.20;99.90
10270;DHT22;5180;50.832;5.390;2022-11-21T16:55:31;9.20;99.90
10270;DHT22;5180;50.832;5.390;2022-11-21T16:57:56;9.20;99.90
10270;DHT22;5180;50.832;5.390;2022-11-21T17:00:24;9.20;99.90
10270;DHT22;5180;50.832;5.390;2022-11-21T17:02:51;9.20;99.90
10270;DHT22;5180;50.832;5.390;2022-11-21T17:05:17;9.20;99.90
10270;DHT22;5180;50.832;5.390;2022-11-21T17:07:44;9.20;99.90
10270;DHT22;5180;50.832;5.390;2022-11-21T17:10:10;9.20;99.90
10270;DHT22;5180;50.832;5.390;2022-11-21T17:12:37;9.20;99.90
10270;DHT22;5180;50.832;5.390;2022-11-21T17:15:05;9.20;99.90
10270;DHT22;5180;50.832;5.390;2022-11-21T17:17:31;9.20;99.90
10270;DHT22;5180;50.832;5.390;2022-11-21T17:19:57;9.20;99.90
10270;DHT22;5180;50.832;5.390;2022-11-21T17:22:22;9.20;99.90
10270;DHT22;5180;50.832;5.390;2022-11-21T17:24:50;9.20;99.90
10270;DHT22;5180;50.832;5.390;2022-11-21T17:27:21;9.20;99.90
10270;DHT22;5180;50.832;5.390;2022-11-21T17:29:47;9.20;99.90
10270;DHT22;5180;50.832;5.390;2022-11-21T17:32:13;9.20;99.90
10270;DHT22;5180;50.832;5.390;2022-11-21T17:34:38;9.20;99.90
10270;DHT22;5180;50.832;5.390;2022-11-21T17:37:04;9.20;99.90
10270;DHT22;5180;50.832;5.390;2022-11-21T17:39:30;9.20;99.90
10270;DHT22;5180;50.832;5.390;2022-11-21T17:41:56;9.20;99.90
10270;DHT22;5180;50.832;5.390;2022-11-21T17:44:23;9.20;99.90
10270;DHT22;5180;50.832;5.390;2022-11-21T17:46:49;9.20;99.90
10270;DHT22;5180;50.832;5.390;2022-11-21T17:49:15;9.20;99.90
10270;DHT22;5180;50.832;5.390;2022-11-21T17:51:40;9.10;99.90
10270;DHT22;5180;50.832;5.390;2022-11-21T17:54:06;9.10;99.90
10270;DHT22;5180;50.832;5.390;2022-11-21T17:56:34;9.00;99.90
10270;DHT22;5180;50.832;5.390;2022-11-21T17:59:03;9.00;99.90
10270;DHT22;5180;50.832;5.390;2022-11-21T18:01:29;9.00;99.90
10270;DHT22;5180;50.832;5.390;2022-11-21T18:04:00;8.90;99.90
10270;DHT22;5180;50.832;5.390;2022-11-21T18:06:28;8.90;99.90
10270;DHT22;5180;50.832;5.390;2022-11-21T18:08:55;8.90;99.90
10270;DHT22;5180;50.832;5.390;2022-11-21T18:11:26;8.80;99.90
10270;DHT22;5180;50.832;5.390;2022-11-21T18:13:52;8.80;99.90
10270;DHT22;5180;50.832;5.390;2022-11-21T18:16:20;8.90;99.90
10270;DHT22;5180;50.832;5.390;2022-11-21T18:18:47;8.80;99.90